Time;durP1;ratioP1;P1;durP2;ratioP2;P2;SDS_P1;SDS_P2;PMS_P1;PMS_P2;Temp;Humidity;BMP_temperature;BMP_pressure;BME280_temperature;BME280_humidity;BME280_pressure;Samples;Min_cycle;Max_cycle;Signal;HPM_P1;HPM_P2
2022/05/26 00:03:56;;;;;;;183.50;63.60;;;9.50;99.90;;;;;;10610632;28;20027;-81
2022/05/26 00:08:58;;;;;;;108.87;51.03;;;9.40;99.90;;;;;;10613770;27;20691;-81
2022/05/26 00:14:07;;;;;;;134.93;57.33;;;9.40;99.90;;;;;;10594434;27;20118;-81
2022/05/26 00:19:08;;;;;;;175.80;60.30;;;9.30;99.90;;;;;;10571409;28;20067;-81
2022/05/26 00:24:09;;;;;;;194.23;66.17;;;9.20;99.90;;;;;;10602504;28;20041;-81
2022/05/26 00:29:10;;;;;;;248.97;68.17;;;9.20;99.90;;;;;;10611316;27;20038;-81
2022/05/26 00:34:11;;;;;;;445.73;93.50;;;9.10;99.90;;;;;;10585152;27;20045;-81
2022/05/26 00:39:22;;;;;;;126.77;56.43;;;9.00;99.90;;;;;;10611682;27;20038;-81
2022/05/26 00:44:23;;;;;;;202.57;68.67;;;9.10;99.90;;;;;;10598981;27;20652;-81
2022/05/26 00:49:28;;;;;;;140.93;61.80;;;9.20;99.90;;;;;;10614402;27;20067;-81
2022/05/26 00:54:30;;;;;;;127.75;58.63;;;9.10;99.90;;;;;;10620109;27;20065;-82
2022/05/26 00:59:47;;;;;;;331.43;79.87;;;9.10;99.90;;;;;;10579990;27;20032;-81
2022/05/26 01:04:56;;;;;;;220.17;60.87;;;9.00;99.90;;;;;;10588023;27;20031;-81
2022/05/26 01:09:58;;;;;;;421.27;84.73;;;8.90;99.90;;;;;;10619349;27;20039;-81
2022/05/26 01:15:06;;;;;;;221.27;65.67;;;8.80;99.90;;;;;;10577945;27;20034;-81
2022/05/26 01:20:30;;;;;;;219.40;66.47;;;8.80;99.90;;;;;;10578185;27;20467;-81
2022/05/26 01:25:56;;;;;;;424.77;93.00;;;8.80;99.90;;;;;;10598929;27;20054;-82
2022/05/26 01:31:27;;;;;;;580.03;117.93;;;8.80;99.90;;;;;;10615746;27;20038;-81
2022/05/26 01:36:36;;;;;;;139.80;64.87;;;8.80;99.90;;;;;;10617821;27;20059;-80
2022/05/26 01:41:48;;;;;;;143.00;62.20;;;8.90;99.90;;;;;;10597075;27;20043;-80
2022/05/26 01:46:50;;;;;;;139.87;58.50;;;8.90;99.90;;;;;;10595083;27;20113;-81
2022/05/26 01:52:07;;;;;;;148.40;65.20;;;9.00;99.90;;;;;;10618212;27;20137;-82
2022/05/26 01:57:20;;;;;;;356.30;85.23;;;9.00;99.90;;;;;;10607433;27;20071;-82
2022/05/26 02:02:31;;;;;;;797.43;131.17;;;9.00;99.90;;;;;;10617511;27;20066;-82
2022/05/26 02:07:40;;;;;;;140.40;54.97;;;8.90;99.90;;;;;;10604097;27;20023;-81
2022/05/26 02:12:55;;;;;;;212.70;60.17;;;8.70;99.90;;;;;;10617061;27;20047;-81
2022/05/26 02:18:04;;;;;;;164.93;57.03;;;8.60;99.90;;;;;;10594128;27;20068;-81
2022/05/26 02:23:14;;;;;;;318.00;71.47;;;8.60;99.90;;;;;;10574403;27;20594;-81
2022/05/26 02:28:15;;;;;;;369.57;77.13;;;8.50;99.90;;;;;;10592492;27;20359;-81
2022/05/26 02:33:17;;;;;;;404.03;77.33;;;8.50;99.90;;;;;;10615595;27;20035;-81
2022/05/26 02:38:22;;;;;;;144.80;51.77;;;8.40;99.90;;;;;;10602961;27;20031;-80
2022/05/26 02:43:27;;;;;;;224.70;56.43;;;8.50;99.90;;;;;;10615458;27;20446;-81
2022/05/26 02:49:05;;;;;;;289.15;67.88;;;8.50;99.90;;;;;;10607208;27;20040;-81
2022/05/26 02:54:24;;;;;;;90.23;40.50;;;8.50;99.90;;;;;;10590506;27;20047;-81
2022/05/26 02:59:33;;;;;;;140.37;47.33;;;8.50;99.90;;;;;;10616012;27;20554;-82
2022/05/26 03:04:43;;;;;;;517.13;94.83;;;8.50;99.90;;;;;;10567758;22;20056;-81
2022/05/26 03:09:44;;;;;;;458.03;85.90;;;8.50;99.90;;;;;;10529317;28;20402;-80
2022/05/26 03:14:44;;;;;;;332.63;73.40;;;8.50;99.90;;;;;;10526441;28;20078;-80
2022/05/26 03:19:45;;;;;;;218.57;61.33;;;8.60;99.90;;;;;;10530727;28;20105;-80
2022/05/26 03:24:46;;;;;;;252.17;64.27;;;8.60;99.90;;;;;;10529847;28;20119;-81
2022/05/26 03:29:46;;;;;;;157.30;55.23;;;8.70;99.90;;;;;;10522250;28;20101;-82
2022/05/26 03:45:28;;;;;;;155.27;58.87;;;9.20;99.90;;;;;;10528963;28;20383;-82
2022/05/26 03:50:29;;;;;;;137.50;51.87;;;9.40;99.90;;;;;;10527504;28;20539;-82
2022/05/26 03:55:29;;;;;;;141.50;54.37;;;9.50;99.90;;;;;;10494895;28;20032;-82
2022/05/26 04:00:31;;;;;;;131.55;55.97;;;9.70;99.90;;;;;;10491200;28;20028;-83
2022/05/26 04:05:31;;;;;;;138.88;56.33;;;9.90;99.90;;;;;;10490359;28;20075;-83
2022/05/26 04:10:32;;;;;;;122.80;49.63;;;10.00;99.90;;;;;;10502926;28;20914;-83
2022/05/26 04:15:33;;;;;;;118.43;46.92;;;10.20;99.90;;;;;;10507699;28;20031;-83
2022/05/26 04:20:34;;;;;;;110.22;46.30;;;10.20;99.90;;;;;;10512441;28;20034;-82
2022/05/26 04:25:34;;;;;;;92.65;42.35;;;10.20;99.90;;;;;;10534911;28;20028;-80
2022/05/26 04:30:35;;;;;;;118.68;44.55;;;10.30;99.90;;;;;;10496517;28;20380;-82
2022/05/26 04:35:36;;;;;;;123.55;47.72;;;10.30;99.90;;;;;;10520237;28;20035;-82
2022/05/26 04:40:37;;;;;;;97.28;41.13;;;10.20;99.90;;;;;;10511903;28;20368;-81
2022/05/26 04:45:38;;;;;;;108.15;44.50;;;10.20;99.90;;;;;;10493657;28;20675;-81
2022/05/26 04:50:38;;;;;;;116.90;45.53;;;10.30;99.90;;;;;;10494293;28;20110;-81
2022/05/26 04:55:39;;;;;;;105.95;43.63;;;10.40;99.90;;;;;;10494038;28;20491;-81
2022/05/26 05:00:40;;;;;;;99.93;44.33;;;10.40;99.90;;;;;;10494173;28;20078;-82
2022/05/26 05:05:40;;;;;;;94.28;44.03;;;10.60;99.90;;;;;;10475687;28;20056;-82
2022/05/26 05:10:41;;;;;;;97.25;46.58;;;10.70;99.90;;;;;;10494228;28;20075;-82
2022/05/26 05:15:52;;;;;;;108.68;51.53;;;10.90;99.90;;;;;;10493658;28;20025;-81
2022/05/26 05:20:57;;;;;;;109.00;52.88;;;11.20;99.90;;;;;;10493317;28;20028;-82
2022/05/26 05:26:00;;;;;;;110.32;54.53;;;11.50;99.90;;;;;;10493967;28;20029;-82
2022/05/26 05:31:05;;;;;;;95.93;46.42;;;11.80;99.90;;;;;;10492898;28;20412;-82
2022/05/26 05:36:25;;;;;;;72.07;38.13;;;12.20;99.90;;;;;;10493422;28;20703;-82
2022/05/26 05:41:31;;;;;;;54.33;31.17;;;12.40;99.90;;;;;;10492400;28;20063;-82
2022/05/26 05:46:53;;;;;;;45.70;27.67;;;12.60;99.90;;;;;;10492346;28;20514;-82
2022/05/26 05:51:55;;;;;;;40.83;25.80;;;12.90;99.90;;;;;;10474288;28;20051;-83
2022/05/26 05:56:56;;;;;;;42.40;23.92;;;13.10;99.90;;;;;;10492013;28;20051;-82
2022/05/26 06:01:57;;;;;;;38.28;22.65;;;13.30;99.90;;;;;;10473410;28;20060;-81
2022/05/26 06:06:59;;;;;;;29.40;19.00;;;13.50;99.90;;;;;;10491867;28;20694;-81
2022/05/26 06:11:59;;;;;;;20.85;13.57;;;13.60;99.90;;;;;;10491902;28;20024;-80
2022/05/26 06:17:00;;;;;;;22.98;13.50;;;13.80;99.90;;;;;;10491889;28;20032;-79
2022/05/26 06:22:13;;;;;;;22.30;13.50;;;13.90;99.90;;;;;;10491210;28;20059;-79
2022/05/26 06:38:02;;;;;;;;;;;14.50;99.90;;;;;;10491212;28;20103;-79
2022/05/26 06:43:02;;;;;;;18.15;11.05;;;14.70;99.90;;;;;;10490160;28;20317;-78
2022/05/26 06:48:03;;;;;;;14.80;11.00;;;15.10;99.90;;;;;;10489695;28;20032;-78
2022/05/26 06:53:04;;;;;;;18.52;11.52;;;15.60;99.90;;;;;;10489720;28;20381;-78
2022/05/26 06:58:05;;;;;;;15.63;10.07;;;16.00;99.90;;;;;;10489363;28;20042;-79
2022/05/26 07:03:05;;;;;;;15.02;10.20;;;16.30;99.90;;;;;;10489750;28;20057;-79
2022/05/26 07:08:06;;;;;;;13.55;8.93;;;16.50;99.90;;;;;;10489200;28;20029;-79
2022/05/26 07:13:07;;;;;;;15.23;9.90;;;16.60;99.90;;;;;;10489250;28;20028;-79
2022/05/26 07:18:08;;;;;;;14.07;8.73;;;16.70;99.90;;;;;;10488763;28;20032;-79
2022/05/26 07:23:10;;;;;;;18.75;9.20;;;16.80;99.90;;;;;;10488567;28;20033;-81
2022/05/26 07:28:13;;;;;;;15.23;8.95;;;16.80;99.90;;;;;;10488727;28;20571;-79
2022/05/26 07:33:14;;;;;;;15.13;8.48;;;16.90;99.90;;;;;;10470564;28;20024;-79
2022/05/26 07:43:34;;;;;;;13.80;7.70;;;17.10;99.90;;;;;;10487852;28;20056;-80
2022/05/26 07:48:35;;;;;;;9.63;5.88;;;17.30;99.90;;;;;;10487910;28;20039;-80
2022/05/26 07:53:35;;;;;;;7.68;5.18;;;17.50;99.90;;;;;;10487972;28;20484;-81
2022/05/26 07:58:36;;;;;;;7.30;4.30;;;17.60;99.90;;;;;;10487902;28;20503;-80
2022/05/26 08:03:38;;;;;;;6.22;3.67;;;17.90;99.90;;;;;;10487743;28;20080;-79
2022/05/26 08:08:39;;;;;;;8.35;4.70;;;18.20;99.90;;;;;;10488019;28;20143;-80
2022/05/26 08:13:40;;;;;;;8.60;4.57;;;18.20;99.90;;;;;;10488027;28;20056;-82
2022/05/26 08:18:41;;;;;;;6.38;3.53;;;18.40;99.90;;;;;;10487964;28;20173;-81
2022/05/26 08:23:42;;;;;;;6.57;3.55;;;18.60;99.90;;;;;;10487262;28;20300;-79
2022/05/26 08:28:43;;;;;;;8.43;3.55;;;18.90;99.90;;;;;;10487284;28;20033;-82
2022/05/26 08:33:43;;;;;;;7.40;2.75;;;19.00;99.90;;;;;;10487529;28;20463;-81
2022/05/26 08:38:44;;;;;;;5.75;2.22;;;19.30;99.90;;;;;;10486948;28;20032;-81
2022/05/26 08:44:30;;;;;;;5.65;2.83;;;19.40;99.90;;;;;;10487089;28;20024;-83
2022/05/26 08:49:39;;;;;;;7.00;3.10;;;19.70;99.90;;;;;;10487002;28;20071;-82
2022/05/26 08:54:51;;;;;;;2.28;2.00;;;20.00;99.90;;;;;;10492309;28;20029;-82
2022/05/26 08:59:52;;;;;;;4.20;2.22;;;20.10;99.90;;;;;;10494281;28;20392;-82
2022/05/26 09:05:03;;;;;;;3.20;1.63;;;20.20;99.90;;;;;;10494767;28;20064;-82
2022/05/26 09:15:29;;;;;;;2.90;1.75;;;19.80;99.90;;;;;;10493271;28;20032;-82
2022/05/26 09:20:36;;;;;;;3.08;1.30;;;19.90;99.90;;;;;;10494092;28;20029;-82
2022/05/26 09:25:37;;;;;;;2.42;1.40;;;20.30;99.90;;;;;;10493679;28;20032;-85
2022/05/26 09:30:39;;;;;;;2.95;1.40;;;20.50;99.90;;;;;;10493334;28;20032;-82
2022/05/26 09:35:40;;;;;;;3.55;1.40;;;19.90;99.90;;;;;;10492975;28;20051;-83
2022/05/26 09:40:41;;;;;;;2.55;1.70;;;19.40;99.90;;;;;;10492805;28;20035;-83
2022/05/26 09:45:47;;;;;;;4.20;1.70;;;19.40;99.90;;;;;;10493084;28;20020;-85
2022/05/26 09:50:50;;;;;;;3.30;1.80;;;19.40;99.90;;;;;;10492258;28;20054;-83
2022/05/26 09:55:52;;;;;;;3.88;2.30;;;19.10;99.90;;;;;;10492521;28;20356;-85
2022/05/26 10:00:53;;;;;;;2.58;2.03;;;19.20;99.90;;;;;;10491984;28;20036;-82
2022/05/26 10:06:20;;;;;;;3.78;1.83;;;19.80;99.90;;;;;;10491288;28;20060;-82
2022/05/26 10:11:43;;;;;;;1.52;1.40;;;20.90;99.90;;;;;;10491906;28;20029;-82
2022/05/26 10:16:46;;;;;;;5.70;1.10;;;20.70;99.90;;;;;;10491253;28;20038;-82
2022/05/26 10:21:54;;;;;;;8.80;1.20;;;20.50;96.10;;;;;;10501843;28;20066;-82
2022/05/26 10:27:00;;;;;;;2.30;1.00;;;20.40;94.10;;;;;;10490761;28;20027;-85
2022/05/26 10:32:30;;;;;;;1.85;0.95;;;20.00;98.50;;;;;;10490655;28;20476;-82
2022/05/26 10:37:51;;;;;;;3.00;0.95;;;19.70;97.30;;;;;;10462462;28;20492;-83
2022/05/26 10:43:04;;;;;;;5.75;1.45;;;19.50;95.40;;;;;;10490431;28;20094;-83
2022/05/26 10:48:14;;;;;;;3.42;1.50;;;19.50;95.80;;;;;;10488928;28;20047;-86
2022/05/26 10:53:18;;;;;;;2.00;1.30;;;19.90;93.70;;;;;;10489801;28;20021;-81
2022/05/26 10:58:34;;;;;;;3.78;1.00;;;20.50;85.50;;;;;;10489533;28;20034;-82
2022/05/26 11:03:41;;;;;;;2.90;1.02;;;21.10;86.20;;;;;;10489778;28;20506;-82
2022/05/26 11:08:51;;;;;;;3.72;1.20;;;22.00;82.50;;;;;;10489617;28;20016;-82
2022/05/26 11:14:01;;;;;;;5.35;1.20;;;21.90;77.50;;;;;;10488863;28;20136;-82
2022/05/26 11:19:12;;;;;;;1.30;1.10;;;21.40;81.20;;;;;;10488809;28;20032;-81
2022/05/26 11:24:13;;;;;;;4.45;1.60;;;21.00;75.80;;;;;;10489000;28;20391;-82
2022/05/26 11:29:33;;;;;;;2.10;0.88;;;21.30;75.60;;;;;;10488360;28;20039;-84
2022/05/26 11:40:06;;;;;;;3.53;1.30;;;21.50;75.00;;;;;;10488591;28;20127;-82
2022/05/26 11:45:19;;;;;;;6.22;1.63;;;21.30;75.00;;;;;;10488436;28;20032;-82
2022/05/26 11:50:22;;;;;;;6.20;1.48;;;21.10;76.20;;;;;;10488159;28;20383;-82
2022/05/26 11:55:49;;;;;;;4.60;2.15;;;20.80;78.00;;;;;;10488182;28;20571;-83
2022/05/26 12:01:12;;;;;;;3.35;1.58;;;20.60;79.40;;;;;;10487948;28;20039;-82
2022/05/26 12:06:16;;;;;;;2.75;1.88;;;20.10;79.60;;;;;;10488273;28;20090;-83
2022/05/26 12:11:19;;;;;;;6.38;1.48;;;19.80;81.20;;;;;;10487846;28;20532;-82
2022/05/26 12:16:24;;;;;;;3.72;1.55;;;19.60;82.70;;;;;;10503593;28;20027;-81
2022/05/26 12:21:28;;;;;;;;;;;20.10;81.70;;;;;;10499094;28;20123;-84
2022/05/26 12:26:31;;;;;;;2.28;1.35;;;20.30;82.80;;;;;;10526704;28;19911;-83
2022/05/26 12:31:32;;;;;;;1.60;1.20;;;20.90;81.60;;;;;;10509670;28;20086;-83
2022/05/26 12:37:07;;;;;;;3.25;1.55;;;22.10;79.30;;;;;;10517724;28;20032;-84
2022/05/26 12:42:35;;;;;;;4.15;1.45;;;22.30;75.90;;;;;;10471659;28;20052;-84
2022/05/26 12:47:58;;;;;;;3.47;1.30;;;21.50;76.40;;;;;;10495344;28;20495;-83
2022/05/26 12:53:12;;;;;;;4.10;1.50;;;21.10;76.50;;;;;;10498655;28;20024;-84
2022/05/26 12:58:18;;;;;;;7.60;2.00;;;20.80;78.40;;;;;;10531907;28;20044;-83
2022/05/26 13:03:19;;;;;;;8.25;1.50;;;21.40;78.70;;;;;;10535842;28;20059;-83
2022/05/26 13:08:23;;;;;;;2.78;1.40;;;22.40;76.10;;;;;;10532623;28;20039;-82
2022/05/26 13:13:35;;;;;;;5.30;1.63;;;22.50;73.40;;;;;;10489691;28;20127;-82
2022/05/26 13:18:37;;;;;;;2.92;1.65;;;21.90;74.00;;;;;;10476105;28;20381;-85
2022/05/26 13:23:40;;;;;;;3.15;1.30;;;21.50;75.70;;;;;;10493741;28;20484;-79
2022/05/26 13:28:47;;;;;;;5.00;1.52;;;21.20;76.40;;;;;;10481098;28;20105;-84
2022/05/26 13:33:50;;;;;;;2.40;1.40;;;20.90;77.80;;;;;;10509348;28;20038;-85
2022/05/26 13:38:50;;;;;;;1.27;1.00;;;20.80;78.30;;;;;;10524547;28;20034;-82
2022/05/26 13:43:52;;;;;;;2.83;1.02;;;20.60;79.10;;;;;;10501866;28;20028;-82
2022/05/26 13:48:54;;;;;;;1.75;1.10;;;20.80;79.40;;;;;;10515905;28;20036;-85
2022/05/26 13:54:13;;;;;;;2.53;1.42;;;20.70;78.70;;;;;;10524128;28;20020;-85
2022/05/26 13:59:16;;;;;;;2.20;1.38;;;21.00;80.30;;;;;;10533290;28;20542;-84
2022/05/26 14:04:24;;;;;;;4.38;1.20;;;20.90;78.60;;;;;;10509829;28;20106;-87
2022/05/26 14:09:33;;;;;;;2.78;1.10;;;20.70;79.30;;;;;;10533812;28;20028;-85
2022/05/26 14:14:37;;;;;;;5.25;1.42;;;20.30;80.00;;;;;;10514828;28;20039;-83
2022/05/26 14:19:47;;;;;;;2.53;1.20;;;20.00;81.10;;;;;;10492255;28;20039;-83
2022/05/26 14:24:49;;;;;;;2.85;1.30;;;19.70;82.00;;;;;;10532849;28;20024;-83
2022/05/26 14:29:56;;;;;;;1.90;1.10;;;19.50;82.30;;;;;;10529127;28;20043;-84
2022/05/26 14:35:03;;;;;;;4.25;1.80;;;19.30;83.30;;;;;;10531040;28;20032;-82
2022/05/26 14:40:05;;;;;;;2.38;1.30;;;19.20;81.90;;;;;;10513943;28;20129;-82
2022/05/26 14:45:14;;;;;;;3.38;1.67;;;19.10;81.00;;;;;;10503701;28;20031;-84
2022/05/26 14:50:15;;;;;;;2.65;1.60;;;19.10;82.90;;;;;;10518366;28;20653;-82
2022/05/26 14:55:29;;;;;;;4.07;1.20;;;19.20;81.10;;;;;;10509613;28;20048;-84
2022/05/26 15:00:40;;;;;;;1.70;1.20;;;19.50;80.50;;;;;;10521094;28;20413;-85
2022/05/26 15:05:41;;;;;;;4.30;1.42;;;19.80;81.70;;;;;;10518413;28;20059;-86
2022/05/26 15:10:41;;;;;;;4.43;1.30;;;20.30;79.60;;;;;;10528742;28;20020;-83
2022/05/26 15:15:43;;;;;;;5.22;1.25;;;20.30;79.10;;;;;;10517888;28;20028;-84
2022/05/26 15:20:43;;;;;;;1.42;0.85;;;20.00;78.30;;;;;;10513678;28;20113;-84
2022/05/26 15:31:04;;;;;;;1.30;1.10;;;20.20;79.00;;;;;;10528629;28;20036;-84
2022/05/26 15:36:10;;;;;;;2.72;1.10;;;20.10;77.90;;;;;;10517485;28;20028;-81
2022/05/26 15:41:12;;;;;;;3.45;1.42;;;20.10;78.00;;;;;;10518329;28;20032;-85
2022/05/26 15:46:36;;;;;;;9.25;1.45;;;20.20;78.40;;;;;;10516329;28;20814;-82
2022/05/26 15:51:38;;;;;;;3.22;1.70;;;19.90;78.80;;;;;;10509110;28;20050;-83
2022/05/26 15:56:40;;;;;;;9.98;2.05;;;19.90;79.70;;;;;;10514545;28;20108;-84
2022/05/26 16:01:41;;;;;;;2.20;1.17;;;20.00;80.80;;;;;;10499985;28;20391;-83
2022/05/26 16:06:42;;;;;;;2.85;0.90;;;20.20;79.00;;;;;;10513540;28;20016;-83
2022/05/26 16:11:46;;;;;;;2.90;1.15;;;19.90;79.10;;;;;;10502241;28;20055;-84
2022/05/26 16:16:46;;;;;;;4.10;1.75;;;19.70;80.10;;;;;;10524325;28;20021;-85
2022/05/26 16:21:48;;;;;;;4.95;2.20;;;19.70;79.60;;;;;;10526454;28;20040;-87
2022/05/26 16:26:49;;;;;;;2.58;1.38;;;19.60;79.90;;;;;;10507664;28;20481;-87
2022/05/26 16:31:49;;;;;;;6.18;1.95;;;19.50;80.40;;;;;;10526044;28;20028;-87
2022/05/26 16:36:54;;;;;;;2.40;1.48;;;19.40;81.50;;;;;;10495236;28;20024;-85
2022/05/26 16:41:54;;;;;;;5.75;2.10;;;19.40;81.60;;;;;;10469037;28;20070;-87
2022/05/26 16:46:55;;;;;;;5.30;2.22;;;19.30;82.40;;;;;;10483357;28;20024;-86
2022/05/26 16:51:57;;;;;;;2.75;1.95;;;19.30;82.20;;;;;;10498899;28;20032;-86
2022/05/26 16:56:58;;;;;;;3.70;2.42;;;19.20;82.50;;;;;;10493613;28;20025;-86
2022/05/26 17:01:58;;;;;;;4.43;3.30;;;19.10;82.70;;;;;;10483730;28;20052;-87
2022/05/26 17:06:59;;;;;;;3.40;2.28;;;19.00;83.50;;;;;;10496099;28;20029;-86
2022/05/26 17:12:00;;;;;;;6.50;2.42;;;19.00;83.50;;;;;;10518016;28;20424;-82
2022/05/26 17:22:20;;;;;;;3.05;1.60;;;18.90;84.00;;;;;;10513740;28;20082;-85
2022/05/26 17:27:34;;;;;;;2.63;1.50;;;18.70;85.70;;;;;;10511607;28;20028;-86
2022/05/26 17:32:35;;;;;;;62.55;6.53;;;18.70;86.30;;;;;;10535228;28;20024;-83
2022/05/26 17:37:37;;;;;;;6.47;2.67;;;18.60;86.20;;;;;;10514265;28;20032;-85
2022/05/26 17:42:39;;;;;;;5.97;2.40;;;18.50;86.10;;;;;;10522615;28;20046;-81
2022/05/26 17:47:39;;;;;;;3.75;2.20;;;18.50;86.30;;;;;;10487925;28;20070;-82
2022/05/26 17:52:41;;;;;;;3.95;3.13;;;18.40;86.60;;;;;;10509749;28;20104;-89
2022/05/26 17:57:42;;;;;;;3.75;1.98;;;18.40;87.60;;;;;;10494573;28;20020;-83
2022/05/26 18:02:44;;;;;;;6.60;1.75;;;18.30;87.30;;;;;;10504710;28;20531;-82
2022/05/26 18:07:45;;;;;;;4.03;2.97;;;18.20;86.60;;;;;;10503862;28;20012;-83
2022/05/26 18:12:45;;;;;;;2.95;2.20;;;18.20;87.00;;;;;;10532134;28;20016;-85
2022/05/26 18:17:46;;;;;;;6.97;3.25;;;18.10;87.50;;;;;;10489123;28;20028;-85
2022/05/26 18:22:53;;;;;;;3.15;2.47;;;18.10;88.30;;;;;;10518170;28;20032;-86
2022/05/26 18:27:55;;;;;;;3.42;2.40;;;18.00;88.50;;;;;;10495217;28;20035;-84
2022/05/26 18:32:56;;;;;;;7.25;3.78;;;18.00;89.50;;;;;;10519302;28;20035;-81
2022/05/26 18:37:58;;;;;;;7.78;3.45;;;17.90;89.50;;;;;;10506276;28;20137;-84
2022/05/26 18:42:58;;;;;;;4.15;1.95;;;17.80;90.20;;;;;;10525200;28;20040;-83
2022/05/26 18:48:06;;;;;;;2.75;2.10;;;17.80;89.60;;;;;;10521365;28;20028;-84
2022/05/26 18:53:07;;;;;;;3.72;2.10;;;17.70;90.10;;;;;;10501848;28;20422;-81
2022/05/26 18:58:10;;;;;;;4.38;1.90;;;17.70;90.10;;;;;;10512016;28;20032;-89
2022/05/26 19:03:13;;;;;;;3.85;2.65;;;17.60;90.20;;;;;;10495006;28;20133;-84
2022/05/26 19:08:14;;;;;;;3.72;2.35;;;17.60;90.50;;;;;;10504068;28;20028;-84
2022/05/26 19:13:18;;;;;;;9.15;2.92;;;17.50;90.60;;;;;;10529576;28;20023;-85
2022/05/26 19:18:19;;;;;;;6.43;2.47;;;17.40;91.00;;;;;;10493249;28;20032;-86
2022/05/26 19:23:21;;;;;;;2.85;1.83;;;17.30;91.10;;;;;;10512061;28;20056;-85
2022/05/26 19:28:49;;;;;;;3.85;1.80;;;17.30;91.20;;;;;;10491625;28;20016;-85
2022/05/26 19:33:50;;;;;;;3.80;2.42;;;17.20;91.30;;;;;;10479746;28;20037;-84
2022/05/26 19:38:51;;;;;;;7.13;3.80;;;17.20;91.60;;;;;;10496440;28;20060;-86
2022/05/26 19:43:54;;;;;;;7.25;4.45;;;17.20;91.60;;;;;;10487515;28;20127;-87
2022/05/26 19:48:54;;;;;;;8.50;4.90;;;17.10;91.80;;;;;;10484953;28;20089;-87
2022/05/26 19:53:55;;;;;;;8.85;4.88;;;17.10;91.80;;;;;;10507065;28;20032;-86
2022/05/26 19:59:00;;;;;;;9.57;5.47;;;17.10;91.90;;;;;;10501015;28;20040;-85
2022/05/26 20:04:01;;;;;;;8.60;4.57;;;17.10;92.00;;;;;;10514532;28;20081;-84
2022/05/26 20:09:03;;;;;;;9.13;4.60;;;17.10;91.90;;;;;;10504056;28;20037;-86
2022/05/26 20:14:04;;;;;;;10.85;4.10;;;17.20;91.80;;;;;;10489940;28;21390;-84
2022/05/26 20:19:06;;;;;;;6.05;3.30;;;17.20;91.90;;;;;;10526559;28;20495;-83
2022/05/26 20:24:07;;;;;;;8.63;3.90;;;17.20;91.90;;;;;;10509081;28;20024;-84
2022/05/26 20:34:30;;;;;;;5.40;3.00;;;17.00;92.30;;;;;;10524907;28;20036;-84
2022/05/26 20:39:37;;;;;;;6.70;3.20;;;16.90;92.50;;;;;;10527259;28;20415;-85
2022/05/26 20:44:40;;;;;;;7.15;3.10;;;16.70;92.90;;;;;;10527993;28;20070;-85
2022/05/26 20:49:44;;;;;;;7.55;3.30;;;16.60;93.10;;;;;;10494353;28;20025;-84
2022/05/26 20:54:45;;;;;;;6.47;2.88;;;16.50;94.00;;;;;;10521012;28;20082;-86
2022/05/26 20:59:49;;;;;;;5.95;2.80;;;16.20;94.90;;;;;;10510669;28;20407;-84
2022/05/26 21:04:54;;;;;;;6.03;2.90;;;16.00;96.40;;;;;;10532946;28;20060;-84
2022/05/26 21:09:55;;;;;;;6.05;2.80;;;15.90;97.00;;;;;;10516850;28;20020;-85
2022/05/26 21:14:56;;;;;;;5.38;3.20;;;16.00;97.70;;;;;;10475451;28;20098;-85
2022/05/26 21:19:56;;;;;;;6.68;2.45;;;16.00;97.40;;;;;;10512904;28;20066;-85
2022/05/26 21:24:57;;;;;;;6.53;2.83;;;16.20;97.70;;;;;;10534319;28;20051;-85
2022/05/26 21:29:59;;;;;;;4.72;2.90;;;16.20;97.90;;;;;;10516345;28;20093;-85
2022/05/26 21:35:03;;;;;;;5.75;3.10;;;16.20;98.00;;;;;;10493857;28;20525;-86
2022/05/26 21:40:05;;;;;;;4.35;3.10;;;16.30;98.30;;;;;;10510501;28;20044;-88
2022/05/26 21:45:07;;;;;;;3.65;2.70;;;16.30;98.60;;;;;;10533940;28;20426;-86
2022/05/26 21:50:08;;;;;;;5.72;2.80;;;16.20;98.60;;;;;;10515079;28;20072;-88
2022/05/26 21:55:09;;;;;;;5.93;2.78;;;16.30;98.50;;;;;;10533542;28;20065;-84
2022/05/26 22:00:13;;;;;;;4.28;2.63;;;16.30;98.50;;;;;;10491668;28;20044;-87
2022/05/26 22:10:40;;;;;;;5.07;2.35;;;16.30;98.40;;;;;;10511012;28;20052;-85
2022/05/26 22:15:42;;;;;;;3.40;2.10;;;16.30;98.50;;;;;;10523038;28;20032;-85
2022/05/26 22:20:46;;;;;;;5.18;2.10;;;16.30;98.20;;;;;;10532985;28;20142;-84
2022/05/26 22:25:47;;;;;;;2.97;2.15;;;16.30;98.50;;;;;;10507150;28;20020;-86
2022/05/26 22:30:51;;;;;;;4.95;2.30;;;16.30;98.90;;;;;;10505441;28;20067;-86
2022/05/26 22:35:51;;;;;;;6.07;2.60;;;16.20;99.90;;;;;;10476473;28;20036;-86
2022/05/26 22:40:52;;;;;;;3.35;2.30;;;16.10;99.90;;;;;;10501199;28;20040;-85
2022/05/26 22:45:55;;;;;;;6.85;2.80;;;16.10;99.90;;;;;;10498607;28;20449;-86
2022/05/26 22:50:55;;;;;;;6.88;4.10;;;15.90;99.90;;;;;;10520995;28;20106;-87
2022/05/26 22:55:57;;;;;;;7.18;4.20;;;15.80;99.90;;;;;;10504559;28;20208;-86
2022/05/26 23:00:58;;;;;;;12.30;7.47;;;15.60;99.90;;;;;;10496435;28;20391;-86
2022/05/26 23:05:59;;;;;;;14.20;7.72;;;15.50;99.90;;;;;;10489718;28;20592;-85
2022/05/26 23:11:00;;;;;;;9.15;6.60;;;15.30;99.90;;;;;;10512833;28;20028;-86
2022/05/26 23:16:01;;;;;;;9.32;6.22;;;15.00;99.90;;;;;;10492510;28;20016;-85
2022/05/26 23:21:03;;;;;;;11.35;6.95;;;14.70;99.90;;;;;;10529998;28;20040;-87
2022/05/26 23:26:04;;;;;;;9.10;6.43;;;14.30;99.90;;;;;;10485146;28;20782;-84
2022/05/26 23:31:06;;;;;;;10.85;5.88;;;14.10;99.90;;;;;;10478368;28;20032;-86
2022/05/26 23:36:07;;;;;;;7.28;5.38;;;13.90;99.90;;;;;;10516962;28;20788;-86
2022/05/26 23:46:27;;;;;;;9.85;5.90;;;13.60;99.90;;;;;;10508968;28;20032;-87
2022/05/26 23:51:28;;;;;;;9.93;6.35;;;13.50;99.90;;;;;;10529622;28;20028;-87
